createdAt,value
2018-07-08T00:00:22.232Z,27.50
2018-07-08T00:01:53.804Z,27.20
2018-07-08T00:03:25.375Z,27.10
2018-07-08T00:04:56.946Z,28.00
2018-07-08T00:06:28.517Z,27.50
2018-07-08T00:08:00.090Z,28.60
2018-07-08T00:09:31.661Z,29.00
2018-07-08T00:11:03.233Z,30.20
2018-07-08T00:12:34.804Z,31.50
2018-07-08T00:14:06.575Z,31.40
2018-07-08T00:15:37.948Z,33.50
2018-07-08T00:17:09.519Z,36.20
2018-07-08T00:18:41.091Z,40.00
2018-07-08T00:20:12.662Z,44.40
2018-07-08T00:21:44.232Z,32.70
2018-07-08T00:23:15.803Z,31.50
2018-07-08T00:24:48.148Z,31.20
2018-07-08T00:26:18.946Z,32.50
2018-07-08T00:27:50.517Z,32.30
2018-07-08T00:29:22.089Z,35.10
2018-07-08T00:30:53.863Z,31.90
2018-07-08T00:32:25.826Z,33.10
2018-07-08T00:33:56.860Z,30.60
2018-07-08T00:35:28.373Z,31.40
2018-07-08T00:36:59.945Z,34.40
2018-07-08T00:38:31.516Z,31.20
2018-07-08T00:40:03.087Z,40.10
2018-07-08T00:41:34.912Z,38.10
2018-07-08T00:43:06.231Z,35.90
2018-07-08T00:44:37.901Z,33.80
2018-07-08T00:46:09.372Z,36.80
2018-07-08T00:47:40.943Z,35.10
2018-07-08T00:49:12.515Z,33.60
2018-07-08T00:50:44.185Z,32.00
2018-07-08T00:52:15.656Z,32.90
2018-07-08T00:53:47.228Z,32.00
2018-07-08T00:55:18.798Z,32.30
2018-07-08T00:56:50.370Z,37.70
2018-07-08T00:58:21.941Z,33.20
2018-07-08T00:59:53.512Z,40.00
2018-07-08T01:01:25.086Z,36.80
2018-07-08T01:02:56.654Z,32.00
2018-07-08T01:04:28.226Z,35.80
2018-07-08T01:05:59.796Z,37.00
2018-07-08T01:07:31.367Z,35.70
2018-07-08T01:09:03.039Z,35.60
2018-07-08T01:10:34.509Z,36.70
2018-07-08T01:12:06.080Z,36.30
2018-07-08T01:13:37.652Z,37.10
2018-07-08T01:15:09.222Z,35.30
2018-07-08T01:16:40.796Z,37.40
2018-07-08T01:18:12.364Z,38.60
2018-07-08T01:19:43.935Z,37.10
2018-07-08T01:21:15.506Z,37.20
2018-07-08T01:22:47.077Z,41.00
2018-07-08T01:24:18.648Z,44.80
2018-07-08T01:25:50.221Z,38.30
2018-07-08T01:27:21.891Z,39.40
2018-07-08T01:28:53.361Z,37.90
2018-07-08T01:30:24.932Z,42.60
2018-07-08T01:31:56.503Z,40.10
2018-07-08T01:33:28.074Z,40.40
2018-07-08T01:34:59.644Z,40.60
2018-07-08T01:36:31.215Z,44.70
2018-07-08T01:38:02.786Z,44.10
2018-07-08T01:39:34.358Z,41.70
2018-07-08T01:41:05.928Z,37.90
2018-07-08T01:42:37.499Z,41.60
2018-07-08T01:44:09.069Z,39.80
2018-07-08T01:45:40.890Z,42.80
2018-07-08T01:47:12.211Z,47.50
2018-07-08T01:48:43.781Z,46.80
2018-07-08T01:50:15.352Z,53.40
2018-07-08T01:51:46.922Z,45.60
2018-07-08T01:53:18.497Z,47.30
2018-07-08T01:54:50.067Z,45.50
2018-07-08T01:56:21.634Z,47.70
2018-07-08T01:57:53.206Z,44.10
2018-07-08T01:59:24.776Z,44.70
2018-07-08T02:00:56.354Z,48.90
2018-07-08T02:02:27.917Z,47.20
2018-07-08T02:03:59.589Z,45.80
2018-07-08T02:05:31.058Z,46.60
2018-07-08T02:07:02.676Z,48.50
2018-07-08T02:08:34.199Z,49.20
2018-07-08T02:10:05.770Z,49.40
2018-07-08T02:11:37.344Z,52.60
2018-07-08T02:13:08.912Z,53.30
2018-07-08T02:14:40.482Z,52.10
2018-07-08T02:16:12.152Z,47.70
2018-07-08T02:17:43.626Z,50.30
2018-07-08T02:19:15.194Z,52.80
2018-07-08T02:20:46.765Z,48.50
2018-07-08T02:22:18.434Z,52.90
2018-07-08T02:23:49.905Z,56.50
2018-07-08T02:25:21.476Z,55.50
2018-07-08T02:26:53.045Z,53.10
2018-07-08T02:28:24.616Z,57.50
2018-07-08T02:29:56.186Z,50.00
2018-07-08T02:31:27.757Z,55.50
2018-07-08T02:32:59.327Z,52.80
2018-07-08T02:34:31.148Z,56.80
2018-07-08T02:36:02.468Z,58.00
2018-07-08T02:37:34.038Z,56.50
2018-07-08T02:39:05.609Z,59.00
2018-07-08T02:40:37.380Z,53.70
2018-07-08T02:42:08.749Z,53.90
2018-07-08T02:43:40.319Z,56.70
2018-07-08T02:45:11.889Z,52.10
2018-07-08T02:46:43.561Z,52.80
2018-07-08T02:48:15.030Z,54.90
2018-07-08T02:49:46.600Z,57.20
2018-07-08T02:51:18.170Z,58.00
2018-07-08T02:52:49.741Z,54.20
2018-07-08T02:54:21.314Z,52.10
2018-07-08T02:55:52.881Z,55.20
2018-07-08T02:57:24.451Z,56.40
2018-07-08T02:58:56.121Z,51.00
2018-07-08T03:00:27.592Z,53.40
2018-07-08T03:01:59.172Z,56.70
2018-07-08T03:03:30.731Z,57.60
2018-07-08T03:05:02.566Z,53.40
2018-07-08T03:06:33.877Z,50.00
2018-07-08T03:08:05.441Z,50.40
2018-07-08T03:09:37.011Z,52.20
2018-07-08T03:11:08.581Z,52.60
2018-07-08T03:12:40.160Z,56.70
2018-07-08T03:14:11.727Z,55.80
2018-07-08T03:15:43.291Z,53.90
2018-07-08T03:17:15.063Z,55.50
2018-07-08T03:18:46.430Z,57.40
2018-07-08T03:20:18.001Z,54.80
2018-07-08T03:21:49.573Z,55.10
2018-07-08T03:23:21.141Z,63.70
2018-07-08T03:24:52.712Z,54.70
2018-07-08T03:26:24.283Z,54.00
2018-07-08T03:27:55.850Z,55.60
2018-07-08T03:29:27.420Z,56.60
2018-07-08T03:30:58.991Z,55.50
2018-07-08T03:32:30.560Z,56.10
2018-07-08T03:34:02.130Z,60.60
2018-07-08T03:35:33.801Z,60.00
2018-07-08T03:37:05.274Z,60.50
2018-07-08T03:38:36.840Z,55.60
2018-07-08T03:40:08.410Z,59.00
2018-07-08T03:41:39.980Z,58.40
2018-07-08T03:43:11.549Z,59.10
2018-07-08T03:44:43.120Z,56.60
2018-07-08T03:46:14.689Z,60.60
2018-07-08T03:47:46.359Z,59.00
2018-07-08T03:49:17.829Z,60.20
2018-07-08T03:50:49.399Z,65.20
2018-07-08T03:52:20.969Z,61.20
2018-07-08T03:53:52.638Z,63.90
2018-07-08T03:55:25.811Z,63.30
2018-07-08T03:56:55.678Z,66.20
2018-07-08T03:58:27.248Z,63.10
2018-07-08T03:59:58.817Z,61.20
2018-07-08T04:01:30.388Z,62.20
2018-07-08T04:03:01.958Z,60.00
2018-07-08T04:04:33.527Z,66.50
2018-07-08T04:06:05.347Z,64.10
2018-07-08T04:07:36.666Z,64.10
2018-07-08T04:09:08.236Z,66.60
2018-07-08T04:10:39.806Z,69.30
2018-07-08T04:12:11.476Z,69.00
2018-07-08T04:13:42.946Z,66.00
2018-07-08T04:15:14.528Z,69.50
2018-07-08T04:16:46.085Z,67.50
2018-07-08T04:18:17.755Z,66.40
2018-07-08T04:19:49.224Z,66.40
2018-07-08T04:21:20.794Z,72.20
2018-07-08T04:22:52.363Z,71.30
2018-07-08T04:24:23.936Z,64.60
2018-07-08T04:25:55.503Z,69.60
2018-07-08T04:27:27.072Z,70.00
2018-07-08T04:28:58.642Z,74.00
2018-07-08T04:30:30.828Z,66.30
2018-07-08T04:32:01.781Z,68.30
2018-07-08T04:33:33.350Z,65.90
2018-07-08T04:35:04.921Z,69.30
2018-07-08T04:36:36.741Z,70.50
2018-07-08T04:38:08.064Z,67.00
2018-07-08T04:39:39.629Z,65.90
2018-07-08T04:41:11.199Z,72.00
2018-07-08T04:42:42.770Z,71.40
2018-07-08T04:44:14.338Z,77.80
2018-07-08T04:45:45.908Z,77.90
2018-07-08T04:47:17.478Z,73.80
2018-07-08T04:48:49.296Z,67.80
2018-07-08T04:50:20.617Z,68.60
2018-07-08T04:51:52.185Z,69.40
2018-07-08T04:53:23.754Z,77.50
2018-07-08T04:54:55.324Z,74.00
2018-07-08T04:56:26.894Z,79.30
2018-07-08T04:57:58.464Z,74.90
2018-07-08T04:59:30.033Z,79.60
2018-07-08T05:01:01.730Z,77.90
2018-07-08T05:02:33.173Z,76.20
2018-07-08T05:04:04.741Z,84.00
2018-07-08T05:05:36.311Z,80.50
2018-07-08T05:07:07.980Z,80.80
2018-07-08T05:08:39.449Z,80.00
2018-07-08T05:10:11.019Z,81.60
2018-07-08T05:11:42.588Z,88.00
2018-07-08T05:13:14.159Z,81.20
2018-07-08T05:14:45.727Z,78.20
2018-07-08T05:16:17.296Z,85.30
2018-07-08T05:17:48.865Z,79.20
2018-07-08T05:19:20.437Z,79.50
2018-07-08T05:20:52.004Z,76.70
2018-07-08T05:22:23.573Z,82.90
2018-07-08T05:23:55.143Z,79.40
2018-07-08T05:25:26.812Z,92.10
2018-07-08T05:26:58.281Z,92.40
2018-07-08T05:28:29.850Z,93.20
2018-07-08T05:30:01.420Z,92.90
2018-07-08T05:31:32.988Z,93.40
2018-07-08T05:33:04.561Z,86.40
2018-07-08T05:34:36.128Z,84.80
2018-07-08T05:36:07.697Z,93.20
2018-07-08T05:37:39.528Z,95.80
2018-07-08T05:39:10.836Z,95.80
2018-07-08T05:40:42.407Z,99.50
2018-07-08T05:42:13.974Z,95.50
2018-07-08T05:43:45.644Z,95.50
2018-07-08T05:45:17.113Z,96.90
2018-07-08T05:46:48.682Z,111.00
2018-07-08T05:48:20.251Z,106.60
2018-07-08T05:49:51.819Z,103.50
2018-07-08T05:51:23.389Z,105.00
2018-07-08T05:52:54.958Z,91.10
2018-07-08T05:54:26.527Z,99.70
2018-07-08T05:55:58.096Z,87.60
2018-07-08T05:57:29.666Z,92.60
2018-07-08T05:59:01.235Z,87.40
2018-07-08T06:00:32.804Z,100.20
2018-07-08T06:02:04.473Z,103.80
2018-07-08T06:03:35.942Z,104.80
2018-07-08T06:05:07.512Z,107.40
2018-07-08T06:06:39.081Z,111.70
2018-07-08T06:08:10.900Z,103.70
2018-07-08T06:09:42.218Z,119.10
2018-07-08T06:11:13.789Z,112.50
2018-07-08T06:12:45.364Z,118.10
2018-07-08T06:14:16.926Z,108.60
2018-07-08T06:15:48.495Z,104.40
2018-07-08T06:17:20.065Z,114.50
2018-07-08T06:18:51.634Z,117.30
2018-07-08T06:20:23.302Z,105.90
2018-07-08T06:21:54.771Z,106.20
2018-07-08T06:23:26.341Z,92.60
2018-07-08T06:24:57.941Z,101.10
2018-07-08T06:26:29.478Z,119.30
2018-07-08T06:28:01.049Z,96.50
2018-07-08T06:29:32.620Z,97.10
2018-07-08T06:31:04.186Z,101.10
2018-07-08T06:32:35.754Z,102.10
2018-07-08T06:34:07.325Z,91.60
2018-07-08T06:35:38.893Z,109.40
2018-07-08T06:37:10.461Z,109.80
2018-07-08T06:38:42.131Z,101.00
2018-07-08T06:40:13.600Z,109.10
2018-07-08T06:41:45.169Z,108.50
2018-07-08T06:43:16.737Z,110.10
2018-07-08T06:44:48.307Z,103.00
2018-07-08T06:46:19.878Z,100.30
2018-07-08T06:47:51.447Z,101.50
2018-07-08T06:49:23.014Z,103.80
2018-07-08T06:50:54.683Z,117.10
2018-07-08T06:52:26.153Z,100.00
2018-07-08T06:53:57.720Z,104.70
2018-07-08T06:55:29.843Z,107.60
2018-07-08T06:57:00.963Z,107.10
2018-07-08T06:58:32.530Z,90.70
2018-07-08T07:00:03.998Z,101.40
2018-07-08T07:01:35.568Z,99.70
2018-07-08T07:03:07.134Z,93.40
2018-07-08T07:04:38.704Z,89.60
2018-07-08T07:06:10.272Z,98.90
2018-07-08T07:07:41.842Z,104.00
2018-07-08T07:09:13.411Z,104.50
2018-07-08T07:10:44.981Z,100.60
2018-07-08T07:12:16.549Z,96.10
2018-07-08T07:13:48.118Z,102.40
2018-07-08T07:15:19.796Z,105.90
2018-07-08T07:16:51.256Z,105.80
2018-07-08T07:18:22.825Z,96.50
2018-07-08T07:19:54.395Z,100.20
2018-07-08T07:21:26.063Z,100.40
2018-07-08T07:22:57.535Z,112.30
2018-07-08T07:24:29.101Z,109.80
2018-07-08T07:26:00.669Z,108.40
2018-07-08T07:27:32.239Z,119.90
2018-07-08T07:29:03.809Z,114.10
2018-07-08T07:30:35.376Z,117.90
2018-07-08T07:32:06.945Z,119.30
2018-07-08T07:33:38.867Z,119.80
2018-07-08T07:35:10.083Z,120.10
2018-07-08T07:36:41.652Z,121.40
2018-07-08T07:38:13.221Z,122.50
2018-07-08T07:39:45.040Z,120.10
2018-07-08T07:41:16.358Z,121.80
2018-07-08T07:42:47.927Z,121.90
2018-07-08T07:44:19.497Z,119.20
2018-07-08T07:45:51.065Z,125.00
2018-07-08T07:47:22.634Z,123.20
2018-07-08T07:48:54.203Z,120.90
2018-07-08T07:50:25.772Z,122.70
2018-07-08T07:51:57.541Z,121.90
2018-07-08T07:53:28.909Z,121.60
2018-07-08T07:55:00.478Z,122.60
2018-07-08T07:56:32.047Z,132.90
2018-07-08T07:58:03.616Z,121.50
2018-07-08T07:59:35.185Z,122.80
2018-07-08T08:01:06.753Z,124.00
2018-07-08T08:02:38.322Z,122.10
2018-07-08T08:04:09.890Z,122.80
2018-07-08T08:05:41.459Z,125.30
2018-07-08T08:07:13.028Z,126.10
2018-07-08T08:08:44.625Z,125.90
2018-07-08T08:10:16.545Z,123.10
2018-07-08T08:11:47.762Z,115.80
2018-07-08T08:13:19.330Z,120.60
2018-07-08T08:14:50.900Z,120.90
2018-07-08T08:16:22.469Z,113.40
2018-07-08T08:17:54.009Z,121.00
2018-07-08T08:19:25.579Z,119.00
2018-07-08T08:20:57.196Z,126.10
2018-07-08T08:22:28.828Z,119.40
2018-07-08T08:24:00.283Z,121.20
2018-07-08T08:25:31.852Z,126.00
2018-07-08T08:27:03.427Z,126.90
2018-07-08T08:28:35.091Z,125.70
2018-07-08T08:30:06.557Z,125.50
2018-07-08T08:31:38.126Z,127.60
2018-07-08T08:33:09.697Z,140.30
2018-07-08T08:34:41.263Z,135.00
2018-07-08T08:36:12.831Z,135.70
2018-07-08T08:37:44.399Z,133.50
2018-07-08T08:39:15.968Z,136.30
2018-07-08T08:40:47.789Z,139.40
2018-07-08T08:42:19.107Z,131.80
2018-07-08T08:43:50.673Z,133.20
2018-07-08T08:45:22.243Z,139.10
2018-07-08T08:46:53.910Z,134.40
2018-07-08T08:48:25.378Z,134.20
2018-07-08T08:49:56.946Z,135.90
2018-07-08T08:51:28.515Z,124.70
2018-07-08T08:53:00.183Z,133.90
2018-07-08T08:54:31.651Z,126.90
2018-07-08T08:56:03.221Z,126.20
2018-07-08T08:57:34.789Z,127.80
2018-07-08T08:59:06.356Z,130.50
2018-07-08T09:00:37.925Z,137.90
2018-07-08T09:02:09.493Z,131.00
2018-07-08T09:03:41.113Z,123.80
2018-07-08T09:05:12.731Z,130.10
2018-07-08T09:06:44.208Z,130.00
2018-07-08T09:08:15.768Z,136.40
2018-07-08T09:09:47.335Z,130.40
2018-07-08T09:11:19.153Z,126.60
2018-07-08T09:12:50.471Z,128.50
2018-07-08T09:14:22.039Z,134.90
2018-07-08T09:15:53.607Z,135.40
2018-07-08T09:17:25.176Z,121.80
2018-07-08T09:18:56.744Z,122.40
2018-07-08T09:20:28.312Z,124.70
2018-07-08T09:21:59.880Z,124.70
2018-07-08T09:23:31.552Z,132.60
2018-07-08T09:25:03.017Z,132.40
2018-07-08T09:26:34.585Z,129.60
2018-07-08T09:28:06.154Z,124.60
2018-07-08T09:29:37.721Z,135.80
2018-07-08T09:31:09.290Z,121.90
2018-07-08T09:32:40.858Z,130.30
2018-07-08T09:34:12.426Z,127.90
2018-07-08T09:35:43.996Z,120.00
2018-07-08T09:37:15.562Z,127.70
2018-07-08T09:38:47.239Z,129.50
2018-07-08T09:40:18.702Z,129.40
2018-07-08T09:41:50.618Z,126.10
2018-07-08T09:43:21.836Z,129.80
2018-07-08T09:44:53.403Z,124.40
2018-07-08T09:46:24.971Z,126.10
2018-07-08T09:47:56.541Z,121.50
2018-07-08T09:49:28.111Z,125.20
2018-07-08T09:50:59.679Z,120.10
2018-07-08T09:52:31.320Z,121.30
2018-07-08T09:54:02.913Z,115.40
2018-07-08T09:55:34.380Z,113.90
2018-07-08T09:57:05.952Z,108.40
2018-07-08T09:58:37.517Z,114.70
2018-07-08T10:00:09.186Z,114.10
2018-07-08T10:03:12.222Z,112.70
2018-07-08T10:04:43.819Z,103.60
2018-07-08T10:06:15.359Z,103.00
2018-07-08T10:07:46.931Z,99.80
2018-07-08T10:09:18.699Z,100.60
2018-07-08T10:10:50.120Z,98.10
2018-07-08T10:12:21.883Z,97.70
2018-07-08T10:13:53.328Z,99.30
2018-07-08T10:15:24.771Z,89.00
2018-07-08T10:16:56.643Z,87.10
2018-07-08T10:18:28.010Z,88.50
2018-07-08T10:19:59.484Z,89.00
2018-07-08T10:21:31.074Z,90.00
2018-07-08T10:24:34.593Z,84.00
2018-07-08T10:26:05.759Z,81.10
2018-07-08T10:27:37.329Z,74.80
2018-07-08T10:29:08.899Z,76.30
2018-07-08T10:30:40.471Z,73.40
2018-07-08T10:32:12.044Z,75.50
2018-07-08T10:33:43.614Z,68.00
2018-07-08T10:35:15.185Z,68.90
2018-07-08T10:36:46.858Z,67.90
2018-07-08T10:38:18.375Z,65.80
2018-07-08T10:39:49.901Z,65.00
2018-07-08T10:41:21.473Z,62.20
2018-07-08T10:42:53.045Z,64.60
2018-07-08T10:45:56.194Z,61.50
2018-07-08T10:47:27.766Z,61.80
2018-07-08T10:48:59.349Z,61.60
2018-07-08T10:50:30.912Z,63.30
2018-07-08T10:52:02.488Z,59.90
2018-07-08T10:53:34.066Z,58.70
2018-07-08T10:55:05.736Z,58.70
2018-07-08T10:56:37.213Z,58.30
2018-07-08T10:58:08.787Z,56.80
2018-07-08T11:01:11.937Z,55.50
2018-07-08T11:02:43.513Z,56.20
2018-07-08T11:04:15.090Z,54.80
2018-07-08T11:07:18.243Z,55.10
2018-07-08T11:08:49.826Z,56.30
2018-07-08T11:10:21.395Z,52.20
2018-07-08T11:11:52.973Z,51.70
2018-07-08T11:13:24.902Z,52.40
2018-07-08T11:14:56.128Z,51.70
2018-07-08T11:16:27.704Z,52.90
2018-07-08T11:17:59.281Z,52.50
2018-07-08T11:19:30.860Z,52.20
2018-07-08T11:21:02.438Z,51.40
2018-07-08T11:22:34.014Z,48.70
2018-07-08T11:24:05.591Z,46.20
2018-07-08T11:25:37.291Z,42.70
2018-07-08T11:27:08.749Z,43.90
2018-07-08T11:28:40.671Z,43.60
2018-07-08T11:30:12.433Z,44.00
2018-07-08T11:31:43.580Z,44.10
2018-07-08T11:36:18.213Z,42.20
2018-07-08T11:37:49.791Z,43.00
2018-07-08T11:39:21.370Z,40.60
2018-07-08T11:40:52.949Z,41.60
2018-07-08T11:42:24.730Z,39.20
2018-07-08T11:43:56.356Z,43.60
2018-07-08T11:45:27.684Z,40.80
2018-07-08T11:46:59.264Z,40.80
2018-07-08T11:48:30.842Z,42.10
2018-07-08T11:50:02.723Z,42.10
2018-07-08T11:51:34.001Z,39.70
2018-07-08T11:53:05.580Z,38.70
2018-07-08T11:54:37.159Z,38.60
2018-07-08T11:56:08.738Z,41.20
2018-07-08T11:57:40.318Z,41.00
2018-07-08T11:59:11.897Z,39.60
2018-07-08T12:00:43.476Z,38.50
2018-07-08T12:02:15.056Z,39.50
2018-07-08T12:03:46.635Z,36.50
2018-07-08T12:05:18.215Z,41.20
2018-07-08T12:06:49.794Z,36.90
2018-07-08T12:08:21.485Z,34.80
2018-07-08T12:09:52.954Z,34.60
2018-07-08T12:11:24.533Z,34.90
2018-07-08T12:12:56.112Z,32.80
2018-07-08T12:14:27.974Z,33.50
2018-07-08T12:15:59.272Z,31.30
2018-07-08T12:17:30.853Z,33.60
2018-07-08T12:19:02.435Z,32.20
2018-07-08T12:20:34.012Z,30.20
2018-07-08T12:22:05.638Z,32.50
2018-07-08T12:23:37.173Z,32.20
2018-07-08T12:25:08.753Z,30.70
2018-07-08T12:26:40.434Z,30.20
2018-07-08T12:28:11.914Z,30.60
2018-07-08T12:29:43.495Z,30.80
2018-07-08T12:31:15.278Z,29.50
2018-07-08T12:32:46.657Z,30.80
2018-07-08T12:34:18.238Z,29.70
2018-07-08T12:35:49.818Z,27.50
2018-07-08T12:37:21.400Z,28.30
2018-07-08T12:40:24.563Z,27.60
2018-07-08T12:41:56.143Z,27.00
2018-07-08T12:43:27.723Z,27.20
2018-07-08T12:44:59.305Z,28.30
2018-07-08T12:46:30.986Z,27.30
2018-07-08T12:48:02.467Z,26.20
2018-07-08T12:49:34.049Z,27.60
2018-07-08T12:51:05.629Z,26.10
2018-07-08T12:52:37.212Z,26.40
2018-07-08T12:54:08.794Z,25.20
2018-07-08T12:55:40.908Z,26.10
2018-07-08T12:57:11.955Z,25.30
2018-07-08T12:58:43.694Z,27.50
2018-07-08T13:00:15.116Z,25.40
2018-07-08T13:01:47.001Z,24.50
2018-07-08T13:03:18.583Z,23.70
2018-07-08T13:04:50.893Z,24.20
2018-07-08T13:06:21.451Z,23.30
2018-07-08T13:07:53.023Z,24.70
2018-07-08T13:10:56.185Z,24.00
2018-07-08T13:13:59.349Z,24.50
2018-07-08T13:15:30.930Z,24.70
2018-07-08T13:18:35.484Z,23.80
2018-07-08T13:20:05.773Z,24.00
2018-07-08T13:21:37.257Z,23.30
2018-07-08T13:23:08.839Z,23.90
2018-07-08T13:24:40.723Z,22.50
2018-07-08T13:26:12.070Z,23.30
2018-07-08T13:27:43.786Z,23.10
2018-07-08T13:29:15.166Z,22.10
2018-07-08T13:30:47.051Z,22.80
2018-07-08T13:32:18.460Z,22.70
2018-07-08T13:33:49.913Z,21.60
2018-07-08T13:35:21.697Z,21.40
2018-07-08T13:36:53.077Z,21.50
2018-07-08T13:38:24.662Z,22.10
2018-07-08T13:39:56.241Z,20.00
2018-07-08T13:41:27.824Z,20.50
2018-07-08T13:42:59.708Z,19.60
2018-07-08T13:44:30.987Z,19.00
2018-07-08T13:47:34.152Z,17.80
2018-07-08T13:49:06.517Z,17.80
2018-07-08T13:50:37.316Z,18.60
2018-07-08T13:53:40.481Z,17.80
2018-07-08T13:56:43.646Z,16.90
2018-07-08T13:59:47.013Z,15.60
2018-07-08T14:01:18.395Z,15.90
2018-07-08T14:02:50.079Z,16.90
2018-07-08T14:04:21.560Z,16.40
2018-07-08T14:05:53.447Z,17.00
2018-07-08T14:07:24.726Z,17.70
2018-07-08T14:10:28.093Z,16.30
2018-07-08T14:11:59.475Z,17.20
2018-07-08T14:13:31.361Z,17.20
2018-07-08T14:15:02.645Z,16.90
2018-07-08T14:16:34.224Z,17.60
2018-07-08T14:19:37.924Z,17.50
2018-07-08T14:24:12.390Z,15.30
2018-07-08T14:25:43.814Z,13.60
2018-07-08T14:27:15.307Z,13.60
2018-07-08T14:30:18.475Z,13.70
2018-07-08T14:31:50.591Z,16.20
2018-07-08T14:33:21.641Z,13.60
2018-07-08T14:34:53.228Z,12.30
2018-07-08T14:36:25.213Z,11.20
2018-07-08T14:37:56.392Z,11.20
2018-07-08T14:39:27.976Z,11.10
2018-07-08T14:42:31.244Z,12.50
2018-07-08T14:44:02.728Z,12.40
2018-07-08T14:45:34.842Z,10.60
2018-07-08T14:47:05.893Z,11.80
2018-07-08T14:48:37.478Z,10.80
2018-07-08T14:50:09.061Z,12.40
2018-07-08T14:54:43.812Z,11.30
2018-07-08T14:56:15.708Z,10.90
2018-07-08T14:57:47.186Z,10.80
2018-07-08T14:59:18.867Z,11.00
2018-07-08T15:00:50.782Z,12.40
2018-07-08T15:02:21.733Z,9.90
2018-07-08T15:03:53.317Z,10.70
2018-07-08T15:05:25.507Z,11.10
2018-07-08T15:06:56.889Z,10.60
2018-07-08T15:08:28.067Z,9.80
2018-07-08T15:09:59.653Z,11.60
2018-07-08T15:11:31.768Z,9.70
2018-07-08T15:13:03.022Z,9.70
2018-07-08T15:14:34.409Z,9.50
2018-07-08T15:16:06.247Z,9.70
2018-07-08T15:17:37.576Z,9.60
2018-07-08T15:19:09.254Z,11.50
2018-07-08T15:20:40.738Z,8.50
2018-07-08T15:22:12.855Z,7.90
2018-07-08T15:23:44.209Z,8.60
2018-07-08T15:25:15.490Z,10.60
2018-07-08T15:26:47.073Z,9.80
2018-07-08T15:31:21.827Z,10.40
2018-07-08T15:32:53.613Z,9.50
2018-07-08T15:34:24.999Z,7.50
2018-07-08T15:35:56.785Z,7.90
2018-07-08T15:37:28.263Z,6.90
2018-07-08T15:38:59.746Z,7.60
2018-07-08T15:40:31.331Z,7.00
2018-07-08T15:43:34.701Z,5.90
2018-07-08T15:45:06.084Z,5.90
2018-07-08T15:46:37.670Z,7.00
2018-07-08T15:48:09.253Z,6.30
2018-07-08T15:49:41.347Z,7.70
2018-07-08T15:51:12.422Z,9.40
2018-07-08T15:54:15.593Z,6.20
2018-07-08T15:55:48.514Z,5.90
2018-07-08T15:57:18.760Z,5.10
2018-07-08T15:58:50.345Z,5.90
2018-07-08T16:00:21.930Z,6.20
2018-07-08T16:03:25.099Z,6.50
2018-07-08T16:04:56.684Z,6.70
2018-07-08T16:06:28.267Z,7.50
2018-07-08T16:07:59.851Z,6.40
2018-07-08T16:09:31.840Z,7.00
2018-07-08T16:11:03.021Z,9.20
2018-07-08T16:12:34.605Z,6.70
2018-07-08T16:14:06.190Z,7.20
2018-07-08T16:15:37.875Z,7.10
2018-07-08T16:17:10.092Z,9.40
2018-07-08T16:18:40.989Z,8.10
2018-07-08T16:20:12.831Z,8.10
2018-07-08T16:21:44.644Z,7.70
2018-07-08T16:23:15.696Z,7.20
2018-07-08T16:24:47.381Z,7.20
2018-07-08T16:27:50.461Z,8.00
2018-07-08T16:30:53.924Z,7.80
2018-07-08T16:32:25.204Z,8.00
2018-07-08T16:33:56.888Z,8.70
2018-07-08T16:35:28.372Z,8.30
2018-07-08T16:36:59.958Z,7.70
2018-07-08T16:38:31.542Z,8.60
2018-07-08T16:40:03.275Z,9.20
2018-07-08T16:41:34.929Z,8.00
2018-07-08T16:43:06.295Z,8.80
2018-07-08T16:44:37.880Z,10.50
2018-07-08T16:46:09.465Z,8.10
2018-07-08T16:47:41.049Z,9.30
2018-07-08T16:49:12.635Z,8.70
2018-07-08T16:52:15.904Z,8.80
2018-07-08T16:53:47.391Z,8.30
2018-07-08T16:55:19.173Z,9.70
2018-07-08T16:56:51.162Z,9.20
2018-07-08T16:58:22.141Z,11.20
2018-07-08T16:59:53.724Z,8.60
2018-07-08T17:01:25.309Z,9.10
2018-07-08T17:02:56.902Z,9.20
2018-07-08T17:04:29.009Z,8.90
2018-07-08T17:06:00.061Z,8.50
2018-07-08T17:07:31.645Z,8.80
2018-07-08T17:09:03.229Z,8.80
2018-07-08T17:12:06.802Z,10.60
2018-07-08T17:13:37.993Z,8.50
2018-07-08T17:15:09.566Z,8.80
2018-07-08T17:16:41.684Z,7.60
2018-07-08T17:18:12.937Z,7.60
2018-07-08T17:19:44.321Z,10.50
2018-07-08T17:21:15.910Z,6.80
2018-07-08T17:22:47.486Z,7.50
2018-07-08T17:24:19.171Z,7.00
2018-07-08T17:25:50.655Z,7.30
2018-07-08T17:27:22.239Z,7.50
2018-07-08T17:28:53.823Z,7.60
2018-07-08T17:30:25.508Z,7.70
2018-07-08T17:31:56.992Z,9.00
2018-07-08T17:33:28.581Z,10.70
2018-07-08T17:35:00.160Z,7.90
2018-07-08T17:36:31.744Z,10.60
2018-07-08T17:38:03.862Z,8.00
2018-07-08T17:39:34.917Z,6.50
2018-07-08T17:41:06.804Z,8.20
2018-07-08T17:42:38.080Z,6.70
2018-07-08T17:44:09.664Z,8.30
2018-07-08T17:45:41.252Z,8.00
2018-07-08T17:48:45.051Z,7.10
2018-07-08T17:50:15.999Z,6.90
2018-07-08T17:53:19.167Z,9.40
2018-07-08T17:54:51.008Z,6.60
2018-07-08T17:56:22.333Z,7.60
2018-07-08T17:57:53.917Z,6.90
2018-07-08T17:59:25.503Z,6.70
2018-07-08T18:02:28.668Z,6.60
2018-07-08T18:04:00.256Z,9.80
2018-07-08T18:07:03.418Z,6.50
2018-07-08T18:08:35.303Z,7.00
2018-07-08T18:10:06.585Z,7.10
2018-07-08T18:11:38.167Z,7.30
2018-07-08T18:13:09.753Z,7.60
2018-07-08T18:14:41.433Z,6.30
2018-07-08T18:17:44.804Z,6.90
2018-07-08T18:19:16.083Z,7.30
2018-07-08T18:20:47.668Z,7.60
2018-07-08T18:22:19.251Z,7.20
2018-07-08T18:25:22.414Z,6.90
2018-07-08T18:26:54.098Z,7.00
2018-07-08T18:28:25.579Z,7.00
2018-07-08T18:29:57.162Z,8.20
2018-07-08T18:31:28.984Z,6.70
2018-07-08T18:33:00.579Z,6.20
2018-07-08T18:34:31.913Z,6.70
2018-07-08T18:36:03.492Z,7.20
2018-07-08T18:37:35.075Z,7.30
2018-07-08T18:39:06.657Z,6.70
2018-07-08T18:40:38.240Z,6.20
2018-07-08T18:42:09.822Z,6.70
2018-07-08T18:43:41.404Z,6.50
2018-07-08T18:45:13.188Z,7.10
2018-07-08T18:46:44.573Z,7.40
2018-07-08T18:48:16.153Z,7.50
2018-07-08T18:52:50.899Z,7.20
2018-07-08T18:54:23.418Z,7.00
2018-07-08T18:55:54.063Z,7.20
2018-07-08T18:57:25.646Z,6.90
2018-07-08T18:58:57.228Z,7.50
2018-07-08T19:02:00.395Z,8.30
2018-07-08T19:03:31.974Z,7.60
2018-07-08T19:05:03.657Z,7.10
2018-07-08T19:06:35.138Z,8.10
2018-07-08T19:08:06.719Z,7.40
2018-07-08T19:09:38.301Z,7.80
2018-07-08T19:11:09.886Z,8.60
2018-07-08T19:12:41.465Z,7.60
2018-07-08T19:14:13.046Z,7.60
2018-07-08T19:15:44.630Z,8.60
2018-07-08T19:17:16.212Z,8.10
2018-07-08T19:18:47.790Z,8.20
2018-07-08T19:20:19.376Z,8.20
2018-07-08T19:21:50.953Z,8.10
2018-07-08T19:23:22.636Z,7.30
2018-07-08T19:24:54.115Z,7.30
2018-07-08T19:26:25.696Z,8.00
2018-07-08T19:27:57.581Z,7.40
2018-07-08T19:29:28.857Z,8.00
2018-07-08T19:31:00.463Z,6.90
2018-07-08T19:32:32.479Z,9.10
2018-07-08T19:34:04.206Z,7.50
2018-07-08T19:37:06.768Z,7.30
2018-07-08T19:38:38.343Z,7.20
2018-07-08T19:40:09.923Z,8.40
2018-07-08T19:43:13.985Z,7.80
2018-07-08T19:44:44.663Z,8.90
2018-07-08T19:46:16.393Z,8.40
2018-07-08T19:47:47.824Z,8.70
2018-07-08T19:49:19.607Z,8.20
2018-07-08T19:50:50.984Z,7.70
2018-07-08T19:52:22.564Z,9.20
2018-07-08T19:53:54.143Z,7.50
2018-07-08T19:55:25.724Z,8.20
2018-07-08T19:56:57.505Z,7.90
2018-07-08T19:58:29.188Z,8.40
2018-07-08T20:00:00.462Z,8.60
2018-07-08T20:01:32.141Z,8.00
2018-07-08T20:03:03.620Z,8.20
2018-07-08T20:04:35.199Z,8.70
2018-07-08T20:06:06.981Z,8.10
2018-07-08T20:07:38.384Z,8.60
2018-07-08T20:09:10.139Z,8.70
2018-07-08T20:10:41.821Z,11.80
2018-07-08T20:12:13.094Z,10.40
2018-07-08T20:13:44.676Z,9.40
2018-07-08T20:15:16.251Z,9.00
2018-07-08T20:16:47.830Z,11.40
2018-07-08T20:18:19.409Z,13.00
2018-07-08T20:19:51.491Z,11.40
2018-07-08T20:21:22.934Z,10.70
2018-07-08T20:22:54.145Z,10.40
2018-07-08T20:24:25.727Z,12.40
2018-07-08T20:25:57.300Z,12.00
2018-07-08T20:29:00.459Z,11.40
2018-07-08T20:30:32.037Z,10.70
2018-07-08T20:32:03.611Z,14.00
2018-07-08T20:33:35.492Z,11.80
2018-07-08T20:35:07.750Z,11.30
2018-07-08T20:36:38.388Z,12.30
2018-07-08T20:38:10.022Z,13.40
2018-07-08T20:39:41.498Z,13.50
2018-07-08T20:41:13.076Z,12.90
2018-07-08T20:42:44.654Z,10.70
2018-07-08T20:44:16.230Z,17.80
2018-07-08T20:45:47.806Z,15.30
2018-07-08T20:47:19.383Z,15.90